createdAt,value
2023-04-16T00:01:16.020Z,9.10
2023-04-16T00:03:43.078Z,9.07
2023-04-16T00:06:11.397Z,9.29
2023-04-16T00:09:01.792Z,8.80
2023-04-16T00:11:28.461Z,9.14
2023-04-16T00:13:55.312Z,9.00
2023-04-16T00:16:22.033Z,9.10
2023-04-16T00:18:48.642Z,8.74
2023-04-16T00:21:16.145Z,9.07
2023-04-16T00:23:42.836Z,9.17
2023-04-16T00:26:09.723Z,9.19
2023-04-16T00:28:36.700Z,9.09
2023-04-16T00:31:25.270Z,8.86
2023-04-16T00:33:52.011Z,8.89
2023-04-16T00:36:22.630Z,9.39
2023-04-16T00:38:49.248Z,9.17
2023-04-16T00:41:16.797Z,9.27
2023-04-16T00:43:43.319Z,9.44
2023-04-16T00:46:10.225Z,9.28
2023-04-16T00:48:40.899Z,9.29
2023-04-16T00:51:08.477Z,9.31
2023-04-16T00:53:35.949Z,9.48
2023-04-16T00:56:04.299Z,9.29
2023-04-16T00:58:32.576Z,9.43
2023-04-16T01:00:59.651Z,9.32
2023-04-16T01:03:41.531Z,9.39
2023-04-16T01:06:08.461Z,9.20
2023-04-16T01:08:35.448Z,9.45
2023-04-16T01:11:02.826Z,9.51
2023-04-16T01:13:29.870Z,9.37
2023-04-16T01:15:56.932Z,9.21
2023-04-16T01:18:24.370Z,9.41
2023-04-16T01:20:51.300Z,9.55
2023-04-16T01:23:18.984Z,9.55
2023-04-16T01:25:46.384Z,9.26
2023-04-16T01:28:13.282Z,9.39
2023-04-16T01:30:41.632Z,9.48
2023-04-16T01:33:11.224Z,9.47
2023-04-16T01:35:41.476Z,9.23
2023-04-16T01:38:09.377Z,9.43
2023-04-16T01:40:39.672Z,9.23
2023-04-16T01:43:08.544Z,9.26
2023-04-16T01:45:35.926Z,9.05
2023-04-16T01:48:04.353Z,9.38
2023-04-16T01:50:31.529Z,9.35
2023-04-16T01:52:58.146Z,9.48
2023-04-16T01:55:24.956Z,9.31
2023-04-16T01:57:51.527Z,9.29
2023-04-16T02:00:18.539Z,9.28
2023-04-16T02:02:45.833Z,9.46
2023-04-16T02:05:12.825Z,9.42
2023-04-16T02:07:39.656Z,9.19
2023-04-16T02:10:07.676Z,9.20
2023-04-16T02:12:34.448Z,9.17
2023-04-16T02:15:01.067Z,9.37
2023-04-16T02:17:27.787Z,9.20
2023-04-16T02:19:54.431Z,9.12
2023-04-16T02:22:21.026Z,9.04
2023-04-16T02:24:47.666Z,9.35
2023-04-16T02:27:14.259Z,9.35
2023-04-16T02:29:40.863Z,9.28
2023-04-16T02:32:07.537Z,9.36
2023-04-16T02:34:36.681Z,9.24
2023-04-16T02:37:05.735Z,9.09
2023-04-16T02:39:32.374Z,9.18
2023-04-16T02:41:59.444Z,9.21
2023-04-16T02:44:26.272Z,9.25
2023-04-16T02:46:52.774Z,9.11
2023-04-16T02:49:19.368Z,9.04
2023-04-16T02:51:46.293Z,9.04
2023-04-16T02:54:12.943Z,8.88
2023-04-16T02:56:39.619Z,9.12
2023-04-16T02:59:06.407Z,8.79
2023-04-16T03:01:33.140Z,9.01
2023-04-16T03:04:00.005Z,8.70
2023-04-16T03:06:27.181Z,8.94
2023-04-16T03:08:53.903Z,8.81
2023-04-16T03:11:20.661Z,8.85
2023-04-16T03:13:47.323Z,8.88
2023-04-16T03:16:13.918Z,8.72
2023-04-16T03:18:40.776Z,8.83
2023-04-16T03:21:07.312Z,8.85
2023-04-16T03:23:33.871Z,8.93
2023-04-16T03:26:00.822Z,8.82
2023-04-16T03:28:27.484Z,8.62
2023-04-16T03:30:54.281Z,8.91
2023-04-16T03:33:21.888Z,8.94
2023-04-16T03:35:55.754Z,8.93
2023-04-16T03:38:23.279Z,8.69
2023-04-16T03:40:49.864Z,8.80
2023-04-16T03:43:16.614Z,8.83
2023-04-16T03:45:46.784Z,8.75
2023-04-16T03:48:13.593Z,8.84
2023-04-16T03:50:40.438Z,8.68
2023-04-16T03:53:06.961Z,8.87
2023-04-16T03:55:33.612Z,8.73
2023-04-16T03:58:03.072Z,8.88
2023-04-16T04:00:30.528Z,8.66
2023-04-16T04:02:57.655Z,8.91
2023-04-16T04:05:24.699Z,8.86
2023-04-16T04:07:51.374Z,8.75
2023-04-16T04:10:18.058Z,8.91
2023-04-16T04:12:44.694Z,8.70
2023-04-16T04:15:11.942Z,8.90
2023-04-16T04:17:38.694Z,8.90
2023-04-16T04:20:06.080Z,8.87
2023-04-16T04:22:32.706Z,8.93
2023-04-16T04:24:59.369Z,8.67
2023-04-16T04:27:26.382Z,8.73
2023-04-16T04:29:56.746Z,8.55
2023-04-16T04:32:23.555Z,8.73
2023-04-16T04:34:50.372Z,8.72
2023-04-16T04:37:17.033Z,8.94
2023-04-16T04:39:43.651Z,8.97
2023-04-16T04:42:10.269Z,8.90
2023-04-16T04:44:36.831Z,8.79
2023-04-16T04:47:03.303Z,8.99
2023-04-16T04:49:30.993Z,8.91
2023-04-16T04:51:57.668Z,8.80
2023-04-16T04:54:24.183Z,8.88
2023-04-16T04:56:52.576Z,8.96
2023-04-16T04:59:20.957Z,8.89
2023-04-16T05:01:47.649Z,8.86
2023-04-16T05:04:14.454Z,8.98
2023-04-16T05:06:41.228Z,8.67
2023-04-16T05:09:11.887Z,8.96
2023-04-16T05:11:39.323Z,9.01
2023-04-16T05:14:05.954Z,9.08
2023-04-16T05:16:32.664Z,8.92
2023-04-16T05:18:59.369Z,8.94
2023-04-16T05:21:26.610Z,8.96
2023-04-16T05:23:53.732Z,8.89
2023-04-16T05:26:20.896Z,8.90
2023-04-16T05:28:47.509Z,9.00
2023-04-16T05:31:14.618Z,8.82
2023-04-16T05:33:41.331Z,8.84
2023-04-16T05:36:08.086Z,9.14
2023-04-16T05:38:35.434Z,9.04
2023-04-16T05:41:01.961Z,8.96
2023-04-16T05:43:28.535Z,8.84
2023-04-16T05:45:55.728Z,9.24
2023-04-16T05:48:22.605Z,8.99
2023-04-16T05:50:49.756Z,9.15
2023-04-16T05:53:16.867Z,9.19
2023-04-16T05:55:43.566Z,9.26
2023-04-16T05:58:10.273Z,9.05
2023-04-16T06:00:37.051Z,9.28
2023-04-16T06:03:04.282Z,9.39
2023-04-16T06:05:31.359Z,9.52
2023-04-16T06:07:58.036Z,9.50
2023-04-16T06:10:24.642Z,9.44
2023-04-16T06:12:51.388Z,9.52
2023-04-16T06:15:18.032Z,9.51
2023-04-16T06:17:48.071Z,9.55
2023-04-16T06:20:14.752Z,9.72
2023-04-16T06:22:44.185Z,9.87
2023-04-16T06:25:11.039Z,9.76
2023-04-16T06:27:43.003Z,9.68
2023-04-16T06:30:16.745Z,9.75
2023-04-16T06:32:51.482Z,9.63
2023-04-16T06:35:20.195Z,10.07
2023-04-16T06:37:47.611Z,9.95
2023-04-16T06:40:16.950Z,10.01
2023-04-16T06:42:46.064Z,9.84
2023-04-16T06:45:18.347Z,10.11
2023-04-16T06:47:45.067Z,10.48
2023-04-16T06:50:11.985Z,10.36
2023-04-16T06:52:38.663Z,10.37
2023-04-16T06:55:07.254Z,10.59
2023-04-16T06:57:35.667Z,10.54
2023-04-16T07:00:07.833Z,10.68
2023-04-16T07:02:36.944Z,10.61
2023-04-16T07:05:04.174Z,10.72
2023-04-16T07:07:31.439Z,10.50
2023-04-16T07:09:59.094Z,10.93
2023-04-16T07:12:25.991Z,10.93
2023-04-16T07:14:52.860Z,11.01
2023-04-16T07:17:19.848Z,10.98
2023-04-16T07:19:46.842Z,11.08
2023-04-16T07:22:21.170Z,11.20
2023-04-16T07:24:53.402Z,11.30
2023-04-16T07:27:23.435Z,10.92
2023-04-16T07:29:54.298Z,11.02
2023-04-16T07:32:24.486Z,11.16
2023-04-16T07:34:52.692Z,11.39
2023-04-16T07:37:19.609Z,11.14
2023-04-16T07:39:47.346Z,11.75
2023-04-16T07:42:14.511Z,11.68
2023-04-16T07:44:41.216Z,11.73
2023-04-16T07:47:07.835Z,11.91
2023-04-16T07:49:34.460Z,12.19
2023-04-16T07:52:01.424Z,12.09
2023-04-16T07:54:31.289Z,12.35
2023-04-16T07:57:42.878Z,12.59
2023-04-16T08:01:17.485Z,12.62
2023-04-16T08:05:08.523Z,12.58
2023-04-16T08:10:43.115Z,12.90
2023-04-16T08:13:14.856Z,12.95
2023-04-16T08:15:41.856Z,13.13
2023-04-16T08:20:40.162Z,13.46
2023-04-16T08:23:07.217Z,13.63
2023-04-16T08:25:36.446Z,13.75
2023-04-16T08:28:05.863Z,14.26
2023-04-16T08:30:35.436Z,14.10
2023-04-16T08:33:02.267Z,14.62
2023-04-16T08:35:29.019Z,14.53
2023-04-16T08:38:08.573Z,14.54
2023-04-16T08:40:41.484Z,15.03
2023-04-16T08:43:15.992Z,15.25
2023-04-16T08:45:44.005Z,15.52
2023-04-16T08:48:17.536Z,15.68
2023-04-16T08:50:49.148Z,15.62
2023-04-16T08:53:29.834Z,15.86
2023-04-16T08:56:00.453Z,15.68
2023-04-16T08:58:30.645Z,16.09
2023-04-16T09:00:57.615Z,16.04
2023-04-16T09:03:24.710Z,16.05
2023-04-16T09:05:52.281Z,16.01
2023-04-16T09:08:21.827Z,16.12
2023-04-16T09:10:49.076Z,15.81
2023-04-16T09:13:17.898Z,16.04
2023-04-16T09:16:00.171Z,16.20
2023-04-16T09:18:32.243Z,16.29
2023-04-16T09:20:59.652Z,16.18
2023-04-16T09:23:26.488Z,16.45
2023-04-16T09:26:25.797Z,16.05
2023-04-16T09:28:54.847Z,16.37
2023-04-16T09:31:26.660Z,16.55
2023-04-16T09:34:24.869Z,16.19
2023-04-16T09:36:57.034Z,16.47
2023-04-16T09:39:23.734Z,16.55
2023-04-16T09:41:54.803Z,16.85
2023-04-16T09:44:21.904Z,16.66
2023-04-16T09:46:51.632Z,16.79
2023-04-16T09:49:21.168Z,16.99
2023-04-16T09:52:01.019Z,17.22
2023-04-16T09:54:42.952Z,17.21
2023-04-16T09:57:09.664Z,17.50
2023-04-16T10:02:23.439Z,17.61
2023-04-16T10:04:54.962Z,17.46
2023-04-16T10:07:22.074Z,17.66
2023-04-16T10:09:51.118Z,18.03
2023-04-16T10:12:17.851Z,18.18
2023-04-16T10:14:44.716Z,17.97
2023-04-16T10:17:11.671Z,18.55
2023-04-16T10:19:40.930Z,18.44
2023-04-16T10:22:07.663Z,18.38
2023-04-16T10:24:37.217Z,18.54
2023-04-16T10:27:04.108Z,18.56
2023-04-16T10:29:34.898Z,18.88
2023-04-16T10:32:02.040Z,19.29
2023-04-16T10:34:29.384Z,19.22
2023-04-16T10:36:58.673Z,19.43
2023-04-16T10:39:28.239Z,19.81
2023-04-16T10:42:12.549Z,20.37
2023-04-16T10:44:43.423Z,20.54
2023-04-16T10:47:14.676Z,20.45
2023-04-16T10:49:42.608Z,20.56
2023-04-16T10:52:15.269Z,20.83
2023-04-16T10:54:41.859Z,20.94
2023-04-16T10:57:12.352Z,21.37
2023-04-16T10:59:42.526Z,21.47
2023-04-16T11:02:26.461Z,21.41
2023-04-16T11:04:57.321Z,21.37
2023-04-16T11:07:33.799Z,21.28
2023-04-16T11:10:02.340Z,21.36
2023-04-16T11:12:29.140Z,21.11
2023-04-16T11:15:05.143Z,20.91
2023-04-16T11:17:43.849Z,20.65
2023-04-16T11:20:20.171Z,20.36
2023-04-16T11:22:58.064Z,20.17
2023-04-16T11:25:29.912Z,20.27
2023-04-16T11:28:00.967Z,20.08
2023-04-16T11:30:32.125Z,19.59
2023-04-16T11:32:59.109Z,19.57
2023-04-16T11:35:28.401Z,19.33
2023-04-16T11:37:58.293Z,18.92
2023-04-16T11:40:25.477Z,19.09
2023-04-16T11:42:52.105Z,18.97
2023-04-16T11:45:19.576Z,19.08
2023-04-16T11:47:53.474Z,18.83
2023-04-16T11:50:23.047Z,18.90
2023-04-16T11:52:54.184Z,18.90
2023-04-16T11:55:22.157Z,18.93
2023-04-16T11:57:49.664Z,18.89
2023-04-16T12:00:19.282Z,18.92
2023-04-16T12:02:51.891Z,19.12
2023-04-16T12:05:31.202Z,19.03
2023-04-16T12:08:12.113Z,18.66
2023-04-16T12:10:55.600Z,18.60
2023-04-16T12:13:24.549Z,18.78
2023-04-16T12:15:58.161Z,18.91
2023-04-16T12:18:27.436Z,18.93
2023-04-16T12:20:55.218Z,18.97
2023-04-16T12:23:33.073Z,19.01
2023-04-16T12:26:10.563Z,19.00
2023-04-16T12:28:41.684Z,18.80
2023-04-16T12:31:08.498Z,19.00
2023-04-16T12:33:40.407Z,19.10
2023-04-16T12:36:20.126Z,19.01
2023-04-16T12:38:46.791Z,18.46
2023-04-16T12:41:13.458Z,18.68
2023-04-16T12:43:40.412Z,18.73
2023-04-16T12:46:07.141Z,18.74
2023-04-16T12:48:33.868Z,19.00
2023-04-16T12:51:02.840Z,18.98
2023-04-16T12:53:29.823Z,19.00
2023-04-16T12:55:56.543Z,18.96
2023-04-16T12:58:25.638Z,18.82
2023-04-16T13:00:52.232Z,18.93
2023-04-16T13:03:24.132Z,18.87
2023-04-16T13:05:51.310Z,18.82
2023-04-16T13:08:18.047Z,18.92
2023-04-16T13:10:44.928Z,18.62
2023-04-16T13:13:11.551Z,18.50
2023-04-16T13:15:38.427Z,18.68
2023-04-16T13:18:05.722Z,18.70
2023-04-16T13:20:33.516Z,18.93
2023-04-16T13:23:06.088Z,18.94
2023-04-16T13:25:35.741Z,18.58
2023-04-16T13:28:10.528Z,18.57
2023-04-16T13:30:37.509Z,18.95
2023-04-16T13:33:04.390Z,19.01
2023-04-16T13:35:31.311Z,19.12
2023-04-16T13:38:00.901Z,19.38
2023-04-16T13:40:27.644Z,19.33
2023-04-16T13:42:56.809Z,19.48
2023-04-16T13:45:23.536Z,19.43
2023-04-16T13:47:53.493Z,19.49
2023-04-16T13:50:23.147Z,19.55
2023-04-16T13:53:00.309Z,19.12
2023-04-16T13:55:33.405Z,19.33
2023-04-16T13:58:03.965Z,19.02
2023-04-16T14:00:31.495Z,19.16
2023-04-16T14:02:58.655Z,19.09
2023-04-16T14:05:27.143Z,19.09
2023-04-16T14:07:53.964Z,19.13
2023-04-16T14:10:22.199Z,19.27
2023-04-16T14:12:49.034Z,18.81
2023-04-16T14:15:15.799Z,19.05
2023-04-16T14:17:45.465Z,18.96
2023-04-16T14:20:13.470Z,18.71
2023-04-16T14:22:42.539Z,18.94
2023-04-16T14:25:13.730Z,18.94
2023-04-16T14:27:41.396Z,18.41
2023-04-16T14:30:13.650Z,18.55
2023-04-16T14:32:40.858Z,18.18
2023-04-16T14:35:08.300Z,18.56
2023-04-16T14:37:36.369Z,18.68
2023-04-16T14:40:10.822Z,18.71
2023-04-16T14:42:40.057Z,18.44
2023-04-16T14:45:07.640Z,18.77
2023-04-16T14:47:34.888Z,18.74
2023-04-16T14:50:06.479Z,18.48
2023-04-16T14:52:33.099Z,18.52
2023-04-16T14:54:59.784Z,18.75
2023-04-16T14:57:47.306Z,18.65
2023-04-16T15:00:20.289Z,18.64
2023-04-16T15:02:51.942Z,18.57
2023-04-16T15:05:18.878Z,18.91
2023-04-16T15:07:45.591Z,18.85
2023-04-16T15:10:14.380Z,18.83
2023-04-16T15:12:41.074Z,18.89
2023-04-16T15:15:17.614Z,19.14
2023-04-16T15:17:44.429Z,19.10
2023-04-16T15:20:11.789Z,19.27
2023-04-16T15:22:38.535Z,19.56
2023-04-16T15:25:06.436Z,19.53
2023-04-16T15:27:33.269Z,19.54
2023-04-16T15:30:00.150Z,19.50
2023-04-16T15:32:29.413Z,19.47
2023-04-16T15:35:00.833Z,19.31
2023-04-16T15:37:28.076Z,19.28
2023-04-16T15:39:55.737Z,19.36
2023-04-16T15:42:26.104Z,19.46
2023-04-16T15:44:53.073Z,19.46
2023-04-16T15:47:21.159Z,19.64
2023-04-16T15:49:47.740Z,19.49
2023-04-16T15:52:14.790Z,19.39
2023-04-16T15:54:41.361Z,19.63
2023-04-16T15:57:08.099Z,19.67
2023-04-16T15:59:34.733Z,19.43
2023-04-16T16:02:01.500Z,19.58
2023-04-16T16:04:28.243Z,19.52
2023-04-16T16:06:55.265Z,19.54
2023-04-16T16:09:28.364Z,19.23
2023-04-16T16:11:55.819Z,19.10
2023-04-16T16:14:22.618Z,19.29
2023-04-16T16:16:49.493Z,19.16
2023-04-16T16:19:18.573Z,19.33
2023-04-16T16:21:45.377Z,19.35
2023-04-16T16:24:12.552Z,19.35
2023-04-16T16:26:39.092Z,19.38
2023-04-16T16:29:05.741Z,19.20
2023-04-16T16:31:32.400Z,19.25
2023-04-16T16:34:02.808Z,19.27
2023-04-16T16:36:29.890Z,19.21
2023-04-16T16:39:04.262Z,19.18
2023-04-16T16:41:31.190Z,19.01
2023-04-16T16:44:05.303Z,18.93
2023-04-16T16:46:32.024Z,18.96
2023-04-16T16:48:58.930Z,18.91
2023-04-16T16:51:26.342Z,18.80
2023-04-16T16:53:53.040Z,18.70
2023-04-16T16:56:22.012Z,18.59
2023-04-16T16:58:52.065Z,18.69
2023-04-16T17:01:21.066Z,18.21
2023-04-16T17:03:47.852Z,18.41
2023-04-16T17:06:14.810Z,18.23
2023-04-16T17:08:41.555Z,18.01
2023-04-16T17:11:08.516Z,17.98
2023-04-16T17:13:35.620Z,17.64
2023-04-16T17:16:02.245Z,17.97
2023-04-16T17:18:31.326Z,17.64
2023-04-16T17:20:57.965Z,17.98
2023-04-16T17:23:24.910Z,17.68
2023-04-16T17:25:51.731Z,17.93
2023-04-16T17:28:18.992Z,17.58
2023-04-16T17:30:51.223Z,17.85
2023-04-16T17:33:21.449Z,17.95
2023-04-16T17:35:50.835Z,17.76
2023-04-16T17:38:17.527Z,17.83
2023-04-16T17:40:44.707Z,17.73
2023-04-16T17:45:54.723Z,17.36
2023-04-16T17:48:21.257Z,17.12
2023-04-16T17:51:00.697Z,16.77
2023-04-16T17:53:30.140Z,16.75
2023-04-16T17:55:58.059Z,16.38
2023-04-16T17:58:26.508Z,16.52
2023-04-16T18:00:53.195Z,16.24
2023-04-16T18:03:21.975Z,16.42
2023-04-16T18:05:51.570Z,16.21
2023-04-16T18:08:20.456Z,15.99
2023-04-16T18:10:47.123Z,16.03
2023-04-16T18:13:16.957Z,15.95
2023-04-16T18:15:43.886Z,15.78
2023-04-16T18:18:18.987Z,15.94
2023-04-16T18:20:46.049Z,15.94
2023-04-16T18:23:12.692Z,15.77
2023-04-16T18:25:40.347Z,15.73
2023-04-16T18:28:06.977Z,15.58
2023-04-16T18:30:34.363Z,15.48
2023-04-16T18:35:34.920Z,15.50
2023-04-16T18:38:04.208Z,15.58
2023-04-16T18:40:34.407Z,15.16
2023-04-16T18:43:01.572Z,15.37
2023-04-16T18:45:28.376Z,15.20
2023-04-16T18:47:58.433Z,15.19
2023-04-16T18:50:26.092Z,15.30
2023-04-16T18:52:55.935Z,15.33
2023-04-16T18:55:22.632Z,15.06
2023-04-16T18:57:49.369Z,15.04
2023-04-16T19:00:16.371Z,15.11
2023-04-16T19:02:42.989Z,14.97
2023-04-16T19:05:09.876Z,15.18
2023-04-16T19:07:41.767Z,15.08
2023-04-16T19:10:11.199Z,14.83
2023-04-16T19:12:38.271Z,14.89
2023-04-16T19:15:05.844Z,14.96
2023-04-16T19:17:32.429Z,15.04
2023-04-16T19:19:59.150Z,14.83
2023-04-16T19:22:28.366Z,14.65
2023-04-16T19:24:55.986Z,14.94
2023-04-16T19:27:22.912Z,14.75
2023-04-16T19:29:52.091Z,14.83
2023-04-16T19:32:18.725Z,14.86
2023-04-16T19:34:48.980Z,14.83
2023-04-16T19:37:15.766Z,14.51
2023-04-16T19:42:27.988Z,14.67
2023-04-16T19:44:55.023Z,14.52
2023-04-16T19:47:24.301Z,14.35
2023-04-16T19:49:55.680Z,14.14
2023-04-16T19:52:25.057Z,14.21
2023-04-16T19:54:54.372Z,14.14
2023-04-16T19:57:21.056Z,14.30
2023-04-16T19:59:47.706Z,14.16
2023-04-16T20:02:14.325Z,14.24
2023-04-16T20:04:41.729Z,14.19
2023-04-16T20:07:11.150Z,14.20
2023-04-16T20:09:42.808Z,14.06
2023-04-16T20:12:13.599Z,13.71
2023-04-16T20:14:42.121Z,13.91
2023-04-16T20:17:10.407Z,13.93
2023-04-16T20:19:40.661Z,14.01
2023-04-16T20:22:13.375Z,13.80
2023-04-16T20:24:47.317Z,13.66
2023-04-16T20:27:18.126Z,13.82
2023-04-16T20:29:44.954Z,13.69
2023-04-16T20:32:11.843Z,13.80
2023-04-16T20:34:44.160Z,13.91
2023-04-16T20:37:15.158Z,13.86
2023-04-16T20:39:48.952Z,13.91
2023-04-16T20:42:16.486Z,13.76
2023-04-16T20:44:50.457Z,13.80
2023-04-16T20:47:17.447Z,13.72
2023-04-16T20:49:46.841Z,14.00
2023-04-16T20:52:14.488Z,13.90
2023-04-16T20:54:41.570Z,13.94
2023-04-16T20:57:08.726Z,13.69
2023-04-16T20:59:36.819Z,13.99
2023-04-16T21:02:06.992Z,13.67
2023-04-16T21:04:35.561Z,13.39
2023-04-16T21:07:04.371Z,13.46
2023-04-16T21:09:31.648Z,13.81
2023-04-16T21:11:58.532Z,13.72
2023-04-16T21:14:25.596Z,13.34
2023-04-16T21:16:52.210Z,13.61
2023-04-16T21:19:21.637Z,13.79
2023-04-16T21:21:49.792Z,13.27
2023-04-16T21:24:17.090Z,13.31
2023-04-16T21:26:44.135Z,13.56
2023-04-16T21:29:11.244Z,13.18
2023-04-16T21:31:38.147Z,13.27
2023-04-16T21:34:05.027Z,13.27
2023-04-16T21:36:34.857Z,13.15
2023-04-16T21:39:01.563Z,13.15
2023-04-16T21:41:28.143Z,13.41
2023-04-16T21:43:54.808Z,13.26
2023-04-16T21:46:21.625Z,13.24
2023-04-16T21:48:49.917Z,12.95
2023-04-16T21:51:16.858Z,13.14
2023-04-16T21:53:43.566Z,13.12
2023-04-16T21:56:10.304Z,13.26
2023-04-16T21:58:37.098Z,12.93
2023-04-16T22:01:06.490Z,13.36
2023-04-16T22:03:40.329Z,12.95
2023-04-16T22:06:07.981Z,13.01
2023-04-16T22:08:34.814Z,12.92
2023-04-16T22:11:02.714Z,13.27
2023-04-16T22:13:32.375Z,13.26
2023-04-16T22:16:02.704Z,12.96
2023-04-16T22:18:32.858Z,12.99
2023-04-16T22:20:59.968Z,12.93
2023-04-16T22:23:26.695Z,13.04
2023-04-16T22:25:55.926Z,13.10
2023-04-16T22:28:23.201Z,13.14
2023-04-16T22:30:49.744Z,12.81
2023-04-16T22:33:16.408Z,13.04
2023-04-16T22:35:43.110Z,12.87
2023-04-16T22:38:10.211Z,12.89
2023-04-16T22:40:36.924Z,12.88
2023-04-16T22:43:03.526Z,12.98
2023-04-16T22:45:30.155Z,12.76
2023-04-16T22:47:56.675Z,12.69
2023-04-16T22:50:23.214Z,12.72
2023-04-16T22:52:49.759Z,12.73
2023-04-16T22:55:16.744Z,12.68
2023-04-16T22:57:43.361Z,12.81
2023-04-16T23:00:15.808Z,12.54
2023-04-16T23:02:43.256Z,12.57
2023-04-16T23:05:10.142Z,12.57
2023-04-16T23:07:36.756Z,12.69
2023-04-16T23:10:03.479Z,12.46
2023-04-16T23:12:29.941Z,12.50
2023-04-16T23:14:56.866Z,12.30
2023-04-16T23:17:23.569Z,12.52
2023-04-16T23:19:50.246Z,12.43
2023-04-16T23:22:16.833Z,12.28
2023-04-16T23:24:43.390Z,12.41
2023-04-16T23:27:09.934Z,12.35
2023-04-16T23:29:36.609Z,12.32
2023-04-16T23:32:03.161Z,12.29
2023-04-16T23:34:29.766Z,12.26
2023-04-16T23:36:56.391Z,12.31
2023-04-16T23:39:22.927Z,12.25
2023-04-16T23:41:49.506Z,12.19
2023-04-16T23:44:16.569Z,12.16
2023-04-16T23:46:43.475Z,12.13
2023-04-16T23:49:10.216Z,12.06
2023-04-16T23:51:37.031Z,11.92
2023-04-16T23:54:03.694Z,11.82
2023-04-16T23:56:30.342Z,11.85
2023-04-16T23:58:56.947Z,11.97
